createdAt,value
2022-09-20T00:01:38.030Z,21.65
2022-09-20T00:04:07.140Z,22.05
2022-09-20T00:06:35.615Z,16.25
2022-09-20T00:09:05.507Z,19.45
2022-09-20T00:11:36.000Z,20.77
2022-09-20T00:14:08.817Z,21.67
2022-09-20T00:16:40.475Z,18.52
2022-09-20T00:19:12.699Z,20.00
2022-09-20T00:21:41.181Z,17.73
2022-09-20T00:24:11.096Z,18.15
2022-09-20T00:26:39.807Z,16.50
2022-09-20T00:29:08.048Z,16.10
2022-09-20T00:31:40.291Z,16.73
2022-09-20T00:34:29.261Z,16.52
2022-09-20T00:36:57.137Z,19.73
2022-09-20T00:39:25.122Z,15.98
2022-09-20T00:41:53.012Z,13.25
2022-09-20T00:44:53.644Z,13.82
2022-09-20T00:47:33.397Z,16.17
2022-09-20T00:50:42.850Z,13.38
2022-09-20T00:53:28.073Z,11.43
2022-09-20T00:56:00.060Z,10.68
2022-09-20T00:58:31.745Z,16.35
2022-09-20T01:01:00.354Z,15.02
2022-09-20T01:03:32.137Z,12.23
2022-09-20T01:06:06.445Z,15.00
2022-09-20T01:08:36.422Z,14.18
2022-09-20T01:11:04.591Z,12.80
2022-09-20T01:13:32.428Z,15.07
2022-09-20T01:16:02.161Z,12.48
2022-09-20T01:18:32.445Z,12.93
2022-09-20T01:21:02.207Z,16.38
2022-09-20T01:24:04.112Z,12.52
2022-09-20T01:26:54.750Z,33.17
2022-09-20T01:29:48.952Z,14.10
2022-09-20T01:32:23.988Z,13.27
2022-09-20T01:34:59.165Z,12.48
2022-09-20T01:38:24.599Z,13.32
2022-09-20T01:41:08.331Z,11.38
2022-09-20T01:44:20.935Z,10.25
2022-09-20T01:47:00.039Z,13.45
2022-09-20T01:49:49.832Z,11.00
2022-09-20T01:52:35.720Z,16.10
2022-09-20T01:55:36.384Z,13.15
2022-09-20T01:58:28.617Z,14.60
2022-09-20T02:01:23.273Z,14.75
2022-09-20T02:04:32.469Z,18.20
2022-09-20T02:07:51.172Z,11.70
2022-09-20T02:10:50.058Z,11.75
2022-09-20T02:13:40.085Z,15.00
2022-09-20T02:16:53.733Z,11.18
2022-09-20T02:19:27.137Z,11.70
2022-09-20T02:22:11.647Z,14.90
2022-09-20T02:25:06.745Z,11.45
2022-09-20T02:27:59.184Z,15.13
2022-09-20T02:31:02.090Z,22.13
2022-09-20T02:34:02.541Z,16.90
2022-09-20T02:37:09.772Z,25.35
2022-09-20T02:39:59.048Z,12.60
2022-09-20T02:42:47.722Z,15.20
2022-09-20T02:45:52.842Z,18.38
2022-09-20T02:48:30.057Z,15.10
2022-09-20T02:51:32.513Z,19.00
2022-09-20T02:54:34.281Z,15.75
2022-09-20T02:57:30.416Z,13.85
2022-09-20T03:00:10.114Z,10.85
2022-09-20T03:02:56.594Z,17.98
2022-09-20T03:06:11.131Z,17.38
2022-09-20T03:08:59.624Z,16.42
2022-09-20T03:12:04.548Z,13.10
2022-09-20T03:14:55.480Z,18.95
2022-09-20T03:17:50.357Z,16.95
2022-09-20T03:20:47.564Z,19.05
2022-09-20T03:24:07.924Z,13.65
2022-09-20T03:26:56.305Z,12.98
2022-09-20T03:29:59.523Z,13.50
2022-09-20T03:32:33.268Z,13.27
2022-09-20T03:35:06.926Z,12.65
2022-09-20T03:37:34.610Z,17.27
2022-09-20T03:40:33.939Z,15.32
2022-09-20T03:43:48.214Z,16.67
2022-09-20T03:46:21.955Z,16.08
2022-09-20T03:49:20.388Z,13.68
2022-09-20T03:52:27.378Z,16.58
2022-09-20T03:55:10.655Z,15.05
2022-09-20T03:58:00.403Z,19.52
2022-09-20T04:00:56.902Z,15.10
2022-09-20T04:03:49.825Z,17.70
2022-09-20T04:06:43.821Z,14.68
2022-09-20T04:09:38.815Z,12.38
2022-09-20T04:12:30.785Z,12.57
2022-09-20T04:15:26.602Z,16.00
2022-09-20T04:18:00.867Z,11.60
2022-09-20T04:20:47.462Z,14.18
2022-09-20T04:23:36.656Z,12.07
2022-09-20T04:26:05.191Z,13.45
2022-09-20T04:28:52.436Z,15.38
2022-09-20T04:31:43.052Z,13.52
2022-09-20T04:34:51.323Z,14.32
2022-09-20T04:37:33.161Z,10.23
2022-09-20T04:40:19.165Z,9.85
2022-09-20T04:43:24.432Z,14.18
2022-09-20T04:45:58.312Z,11.75
2022-09-20T04:49:12.597Z,9.15
2022-09-20T04:52:21.609Z,11.73
2022-09-20T04:54:57.902Z,15.38
2022-09-20T04:57:54.042Z,12.15
2022-09-20T05:00:25.792Z,8.63
2022-09-20T05:03:51.365Z,10.15
2022-09-20T05:06:36.965Z,9.90
2022-09-20T05:09:44.017Z,9.55
2022-09-20T05:12:36.186Z,8.38
2022-09-20T05:15:45.220Z,11.20
2022-09-20T05:18:48.153Z,7.40
2022-09-20T05:21:27.530Z,5.95
2022-09-20T05:24:35.093Z,15.57
2022-09-20T05:27:25.874Z,12.32
2022-09-20T05:30:17.891Z,8.00
2022-09-20T05:33:26.110Z,10.85
2022-09-20T05:36:14.922Z,11.00
2022-09-20T05:38:52.957Z,9.77
2022-09-20T05:41:48.354Z,9.35
2022-09-20T05:44:41.865Z,8.32
2022-09-20T05:47:35.351Z,9.10
2022-09-20T05:50:15.718Z,8.25
2022-09-20T05:53:43.065Z,8.50
2022-09-20T05:56:47.676Z,11.82
2022-09-20T06:00:03.519Z,9.23
2022-09-20T06:03:10.305Z,10.77
2022-09-20T06:05:59.136Z,8.20
2022-09-20T06:09:17.414Z,8.45
2022-09-20T06:12:29.987Z,8.27
2022-09-20T06:15:33.418Z,6.25
2022-09-20T06:18:36.930Z,7.13
2022-09-20T06:21:09.781Z,6.20
2022-09-20T06:23:37.989Z,8.35
2022-09-20T06:26:24.301Z,8.65
2022-09-20T06:28:58.679Z,6.25
2022-09-20T06:31:27.562Z,6.95
2022-09-20T06:34:05.147Z,9.75
2022-09-20T06:36:55.570Z,8.02
2022-09-20T06:40:14.089Z,5.97
2022-09-20T06:42:42.376Z,7.15
2022-09-20T06:45:10.400Z,6.78
2022-09-20T06:47:38.993Z,7.95
2022-09-20T06:50:07.571Z,7.07
2022-09-20T06:52:35.836Z,7.68
2022-09-20T06:55:07.546Z,5.80
2022-09-20T06:57:38.721Z,7.82
2022-09-20T07:00:10.933Z,7.35
2022-09-20T07:02:38.907Z,7.90
2022-09-20T07:05:07.638Z,8.00
2022-09-20T07:07:35.488Z,7.50
2022-09-20T07:10:03.654Z,7.38
2022-09-20T07:12:34.077Z,6.05
2022-09-20T07:15:01.974Z,7.63
2022-09-20T07:17:29.869Z,7.07
2022-09-20T07:19:57.686Z,7.55
2022-09-20T07:22:26.151Z,8.05
2022-09-20T07:24:54.080Z,13.88
2022-09-20T07:27:21.913Z,9.02
2022-09-20T07:29:49.842Z,8.68
2022-09-20T07:32:18.147Z,8.25
2022-09-20T07:34:46.396Z,8.77
2022-09-20T07:37:14.280Z,7.25
2022-09-20T07:39:42.168Z,8.45
2022-09-20T07:42:10.050Z,7.32
2022-09-20T07:44:41.107Z,7.15
2022-09-20T07:47:15.073Z,7.70
2022-09-20T07:49:42.936Z,6.20
2022-09-20T07:52:11.307Z,5.80
2022-09-20T07:54:40.029Z,7.07
2022-09-20T07:57:08.386Z,7.20
2022-09-20T07:59:36.464Z,5.80
2022-09-20T08:02:05.024Z,7.78
2022-09-20T08:04:33.391Z,5.68
2022-09-20T08:07:02.414Z,5.97
2022-09-20T08:09:30.496Z,6.60
2022-09-20T08:11:59.251Z,7.38
2022-09-20T08:14:27.091Z,9.73
2022-09-20T08:17:00.009Z,7.00
2022-09-20T08:19:27.889Z,6.65
2022-09-20T08:21:55.868Z,6.75
2022-09-20T08:24:26.297Z,6.57
2022-09-20T08:26:54.206Z,8.32
2022-09-20T08:29:22.110Z,6.57
2022-09-20T08:31:50.236Z,7.32
2022-09-20T08:34:18.517Z,8.55
2022-09-20T08:36:47.597Z,5.65
2022-09-20T08:42:20.092Z,10.23
2022-09-20T08:45:01.157Z,8.07
2022-09-20T08:47:35.919Z,6.57
2022-09-20T08:50:11.577Z,8.20
2022-09-20T08:52:40.901Z,10.23
2022-09-20T08:55:25.990Z,8.73
2022-09-20T08:57:56.970Z,7.65
2022-09-20T09:00:30.514Z,7.18
2022-09-20T09:03:05.515Z,7.05
2022-09-20T09:05:53.367Z,5.93
2022-09-20T09:08:27.338Z,8.63
2022-09-20T09:10:59.566Z,7.70
2022-09-20T09:13:39.885Z,10.77
2022-09-20T09:16:23.091Z,7.20
2022-09-20T09:18:53.249Z,7.65
2022-09-20T09:21:25.592Z,8.52
2022-09-20T09:24:06.209Z,12.82
2022-09-20T09:26:41.593Z,7.82
2022-09-20T09:29:21.226Z,7.28
2022-09-20T09:31:54.944Z,7.47
2022-09-20T09:34:28.849Z,9.70
2022-09-20T09:36:58.551Z,7.57
2022-09-20T09:39:30.146Z,9.90
2022-09-20T09:42:02.520Z,9.80
2022-09-20T09:44:35.604Z,9.18
2022-09-20T09:47:03.598Z,10.23
2022-09-20T09:49:36.362Z,10.63
2022-09-20T09:52:15.138Z,8.30
2022-09-20T09:54:49.035Z,8.07
2022-09-20T09:57:54.223Z,8.45
2022-09-20T10:00:24.715Z,8.48
2022-09-20T10:03:21.140Z,7.85
2022-09-20T10:05:54.677Z,11.02
2022-09-20T10:08:44.236Z,9.25
2022-09-20T10:11:50.052Z,6.10
2022-09-20T10:15:13.428Z,5.40
2022-09-20T10:17:57.783Z,6.80
2022-09-20T10:20:41.560Z,7.57
2022-09-20T10:23:45.141Z,8.02
2022-09-20T10:26:28.493Z,4.20
2022-09-20T10:29:08.567Z,5.95
2022-09-20T10:32:07.584Z,4.60
2022-09-20T10:35:03.565Z,5.85
2022-09-20T10:38:21.781Z,5.97
2022-09-20T10:41:17.115Z,5.30
2022-09-20T10:44:28.277Z,8.82
2022-09-20T10:47:20.198Z,5.95
2022-09-20T10:50:17.265Z,6.90
2022-09-20T10:53:35.565Z,5.40
2022-09-20T10:56:31.541Z,5.47
2022-09-20T10:59:21.242Z,5.82
2022-09-20T11:02:15.060Z,4.75
2022-09-20T11:05:25.170Z,5.78
2022-09-20T11:08:14.249Z,5.22
2022-09-20T11:10:56.025Z,5.50
2022-09-20T11:14:01.216Z,5.18
2022-09-20T11:16:36.901Z,4.70
2022-09-20T11:19:19.998Z,4.63
2022-09-20T11:22:14.484Z,3.85
2022-09-20T11:25:27.366Z,5.03
2022-09-20T11:28:01.840Z,4.30
2022-09-20T11:30:33.597Z,4.18
2022-09-20T11:33:18.843Z,4.97
2022-09-20T11:35:52.225Z,5.10
2022-09-20T11:38:37.602Z,4.60
2022-09-20T11:41:16.166Z,4.90
2022-09-20T11:43:46.567Z,7.75
2022-09-20T11:46:36.032Z,4.20
2022-09-20T11:49:17.625Z,3.78
2022-09-20T11:51:57.218Z,5.07
2022-09-20T11:54:57.144Z,5.40
2022-09-20T11:57:26.089Z,5.75
2022-09-20T11:59:58.095Z,5.53
2022-09-20T12:02:50.761Z,12.63
2022-09-20T12:05:35.633Z,7.65
2022-09-20T12:08:09.050Z,8.48
2022-09-20T12:10:39.162Z,6.78
2022-09-20T12:13:28.018Z,4.95
2022-09-20T12:16:17.492Z,5.60
2022-09-20T12:18:55.169Z,5.82
2022-09-20T12:21:23.559Z,6.15
2022-09-20T12:23:57.498Z,8.15
2022-09-20T12:26:28.385Z,7.05
2022-09-20T12:29:00.251Z,4.88
2022-09-20T12:31:34.348Z,4.53
2022-09-20T12:34:10.088Z,5.10
2022-09-20T12:37:03.493Z,4.72
2022-09-20T12:39:40.066Z,7.80
2022-09-20T12:42:10.609Z,5.90
2022-09-20T12:44:50.681Z,7.35
2022-09-20T12:47:25.973Z,4.53
2022-09-20T12:50:19.188Z,5.97
2022-09-20T12:52:56.352Z,4.95
2022-09-20T12:55:27.200Z,4.47
2022-09-20T12:58:08.279Z,5.38
2022-09-20T13:00:45.419Z,4.53
2022-09-20T13:03:18.628Z,4.45
2022-09-20T13:05:52.627Z,5.65
2022-09-20T13:09:01.667Z,3.85
2022-09-20T13:11:54.324Z,5.15
2022-09-20T13:14:28.017Z,5.40
2022-09-20T13:17:14.431Z,6.32
2022-09-20T13:19:48.740Z,5.95
2022-09-20T13:22:42.005Z,4.25
2022-09-20T13:25:21.338Z,4.22
2022-09-20T13:28:24.969Z,5.35
2022-09-20T13:31:21.835Z,4.95
2022-09-20T13:33:49.844Z,5.28
2022-09-20T13:36:28.397Z,4.78
2022-09-20T13:38:58.456Z,3.95
2022-09-20T13:41:33.405Z,4.47
2022-09-20T13:44:02.612Z,7.47
2022-09-20T13:46:33.325Z,3.65
2022-09-20T13:49:21.006Z,3.25
2022-09-20T13:51:49.787Z,3.10
2022-09-20T13:54:28.614Z,3.22
2022-09-20T13:57:03.560Z,4.82
2022-09-20T13:59:45.776Z,3.75
2022-09-20T14:02:31.401Z,4.25
2022-09-20T14:05:06.094Z,3.40
2022-09-20T14:07:36.520Z,5.57
2022-09-20T14:10:04.973Z,4.07
2022-09-20T14:12:33.957Z,6.18
2022-09-20T14:15:08.637Z,4.60
2022-09-20T14:17:36.956Z,5.57
2022-09-20T14:20:05.835Z,4.63
2022-09-20T14:22:33.916Z,4.97
2022-09-20T14:25:25.423Z,4.97
2022-09-20T14:28:19.370Z,5.22
2022-09-20T14:30:48.440Z,7.22
2022-09-20T14:33:21.147Z,7.13
2022-09-20T14:35:51.731Z,5.32
2022-09-20T14:38:24.798Z,5.20
2022-09-20T14:40:53.042Z,6.15
2022-09-20T14:43:31.584Z,5.95
2022-09-20T14:46:05.580Z,5.97
2022-09-20T14:48:41.295Z,5.72
2022-09-20T14:51:19.227Z,4.95
2022-09-20T14:53:51.562Z,7.18
2022-09-20T14:56:42.946Z,8.65
2022-09-20T14:59:20.506Z,7.45
2022-09-20T15:02:10.224Z,6.10
2022-09-20T15:04:40.151Z,6.57
2022-09-20T15:07:13.573Z,4.82
2022-09-20T15:09:41.537Z,3.97
2022-09-20T15:12:14.309Z,4.65
2022-09-20T15:14:42.516Z,5.93
2022-09-20T15:17:21.836Z,4.78
2022-09-20T15:19:50.308Z,5.97
2022-09-20T15:22:18.140Z,6.03
2022-09-20T15:24:46.032Z,5.18
2022-09-20T15:27:14.618Z,3.72
2022-09-20T15:29:42.391Z,5.63
2022-09-20T15:32:13.231Z,3.97
2022-09-20T15:34:41.329Z,7.50
2022-09-20T15:37:09.392Z,5.75
2022-09-20T15:39:37.385Z,6.10
2022-09-20T15:42:05.815Z,6.88
2022-09-20T15:44:34.182Z,9.32
2022-09-20T15:47:03.209Z,4.45
2022-09-20T15:49:32.584Z,5.57
2022-09-20T15:52:01.108Z,5.40
2022-09-20T15:54:29.019Z,4.40
2022-09-20T15:56:58.357Z,6.03
2022-09-20T15:59:26.455Z,4.20
2022-09-20T16:01:54.451Z,5.10
2022-09-20T16:04:24.213Z,5.00
2022-09-20T16:06:54.816Z,5.43
2022-09-20T16:09:23.190Z,4.82
2022-09-20T16:11:51.413Z,4.90
2022-09-20T16:14:19.516Z,4.82
2022-09-20T16:16:47.618Z,5.13
2022-09-20T16:19:20.470Z,4.70
2022-09-20T16:21:58.590Z,5.65
2022-09-20T16:24:34.143Z,5.30
2022-09-20T16:27:06.394Z,4.60
2022-09-20T16:29:34.739Z,4.30
2022-09-20T16:32:03.942Z,4.53
2022-09-20T16:34:35.099Z,5.18
2022-09-20T16:37:17.075Z,5.60
2022-09-20T16:39:45.007Z,4.28
2022-09-20T16:42:13.512Z,6.07
2022-09-20T16:44:43.105Z,5.25
2022-09-20T16:47:16.498Z,5.07
2022-09-20T16:49:44.531Z,4.43
2022-09-20T16:52:12.281Z,5.38
2022-09-20T16:54:40.574Z,3.90
2022-09-20T16:57:09.185Z,4.07
2022-09-20T16:59:37.012Z,4.10
2022-09-20T17:02:04.929Z,4.55
2022-09-20T17:04:33.166Z,4.50
2022-09-20T17:07:01.841Z,3.90
2022-09-20T17:09:29.801Z,3.78
2022-09-20T17:11:57.645Z,4.85
2022-09-20T17:14:25.879Z,5.30
2022-09-20T17:16:53.754Z,4.30
2022-09-20T17:19:21.704Z,5.10
2022-09-20T17:21:50.975Z,5.15
2022-09-20T17:24:21.024Z,4.45
2022-09-20T17:26:50.528Z,5.20
2022-09-20T17:29:20.061Z,5.43
2022-09-20T17:31:55.049Z,3.80
2022-09-20T17:34:25.132Z,5.43
2022-09-20T17:36:55.115Z,10.32
2022-09-20T17:39:23.900Z,4.60
2022-09-20T17:41:52.109Z,3.65
2022-09-20T17:44:20.728Z,3.42
2022-09-20T17:46:50.577Z,3.90
2022-09-20T17:49:21.402Z,3.83
2022-09-20T17:51:53.620Z,3.83
2022-09-20T17:54:24.224Z,5.10
2022-09-20T17:56:55.915Z,8.25
2022-09-20T17:59:24.791Z,3.05
2022-09-20T18:01:54.584Z,3.30
2022-09-20T18:04:24.964Z,8.52
2022-09-20T18:06:55.004Z,5.82
2022-09-20T18:09:25.868Z,6.30
2022-09-20T18:11:55.609Z,5.38
2022-09-20T18:14:27.825Z,4.40
2022-09-20T18:17:01.006Z,4.35
2022-09-20T18:19:33.564Z,4.25
2022-09-20T18:22:03.301Z,3.33
2022-09-20T18:24:31.631Z,5.75
2022-09-20T18:27:00.818Z,5.68
2022-09-20T18:29:29.427Z,4.93
2022-09-20T18:31:59.741Z,4.30
2022-09-20T18:34:33.457Z,4.75
2022-09-20T18:37:03.907Z,7.93
2022-09-20T18:39:34.834Z,5.88
2022-09-20T18:42:03.989Z,10.25
2022-09-20T18:44:33.679Z,10.95
2022-09-20T18:47:03.452Z,14.77
2022-09-20T18:49:32.319Z,7.53
2022-09-20T18:52:00.205Z,7.82
2022-09-20T18:54:32.254Z,7.85
2022-09-20T18:57:01.007Z,5.15
2022-09-20T18:59:29.502Z,6.07
2022-09-20T19:02:46.703Z,8.25
2022-09-20T19:05:28.290Z,6.32
2022-09-20T19:08:28.354Z,12.20
2022-09-20T19:11:08.395Z,6.88
2022-09-20T19:13:40.554Z,8.57
2022-09-20T19:16:30.729Z,8.32
2022-09-20T19:19:46.876Z,8.35
2022-09-20T19:22:29.487Z,6.70
2022-09-20T19:25:19.269Z,6.43
2022-09-20T19:27:47.670Z,4.55
2022-09-20T19:30:16.469Z,6.07
2022-09-20T19:32:45.278Z,5.85
2022-09-20T19:35:23.247Z,6.70
2022-09-20T19:38:06.884Z,6.05
2022-09-20T19:40:54.660Z,5.97
2022-09-20T19:43:55.613Z,8.82
2022-09-20T19:46:58.420Z,3.65
2022-09-20T19:50:16.609Z,4.30
2022-09-20T19:52:45.054Z,6.00
2022-09-20T19:55:14.080Z,6.70
2022-09-20T19:57:47.316Z,4.43
2022-09-20T20:00:18.564Z,5.60
2022-09-20T20:02:47.871Z,3.45
2022-09-20T20:05:19.737Z,2.67
2022-09-20T20:08:17.009Z,4.57
2022-09-20T20:11:28.549Z,4.82
2022-09-20T20:14:38.008Z,5.80
2022-09-20T20:17:46.216Z,4.85
2022-09-20T20:20:35.397Z,3.35
2022-09-20T20:23:19.264Z,5.65
2022-09-20T20:26:19.491Z,4.53
2022-09-20T20:28:47.532Z,3.67
2022-09-20T20:31:15.704Z,5.25
2022-09-20T20:33:43.602Z,4.60
2022-09-20T20:36:12.222Z,42.63
2022-09-20T20:38:41.899Z,3.88
2022-09-20T20:41:13.337Z,5.15
2022-09-20T20:43:44.237Z,6.55
2022-09-20T20:46:16.294Z,6.43
2022-09-20T20:48:46.325Z,5.97
2022-09-20T20:51:20.564Z,5.70
2022-09-20T20:53:51.714Z,7.97
2022-09-20T20:56:26.511Z,5.03
2022-09-20T20:59:00.989Z,5.05
2022-09-20T21:01:42.918Z,4.80
2022-09-20T21:04:12.241Z,5.32
2022-09-20T21:06:42.169Z,6.25
2022-09-20T21:09:11.534Z,3.75
2022-09-20T21:11:44.596Z,4.25
2022-09-20T21:14:12.966Z,5.25
2022-09-20T21:16:43.525Z,5.35
2022-09-20T21:19:18.418Z,5.20
2022-09-20T21:21:47.941Z,4.65
2022-09-20T21:24:19.492Z,6.35
2022-09-20T21:26:47.641Z,4.80
2022-09-20T21:29:16.640Z,6.60
2022-09-20T21:31:46.907Z,4.22
2022-09-20T21:34:16.245Z,5.03
